createdAt,value
2023-01-20T00:01:39.556Z,95316.59
2023-01-20T00:04:08.259Z,95831.81
2023-01-20T00:06:38.052Z,95831.81
2023-01-20T00:09:08.054Z,96089.47
2023-01-20T00:11:36.475Z,96347.13
2023-01-20T00:14:04.984Z,96604.81
2023-01-20T00:16:33.619Z,96604.81
2023-01-20T00:19:02.191Z,96604.81
2023-01-20T00:21:31.938Z,96604.81
2023-01-20T00:24:02.052Z,96862.50
2023-01-20T00:26:30.481Z,97120.22
2023-01-20T00:28:59.018Z,97120.22
2023-01-20T00:31:29.813Z,97120.22
2023-01-20T00:34:00.112Z,97120.22
2023-01-20T00:36:31.307Z,97377.97
2023-01-20T00:39:01.995Z,97377.97
2023-01-20T00:41:30.744Z,97377.97
2023-01-20T00:43:59.302Z,97377.97
2023-01-20T00:46:28.097Z,97120.22
2023-01-20T00:48:56.736Z,97377.97
2023-01-20T00:51:25.453Z,97377.97
2023-01-20T00:53:54.069Z,97377.97
2023-01-20T00:56:23.951Z,97377.97
2023-01-20T00:58:52.394Z,97635.72
2023-01-20T01:01:21.003Z,97377.97
2023-01-20T01:03:49.668Z,97120.22
2023-01-20T01:06:19.152Z,97120.22
2023-01-20T01:08:47.450Z,97377.97
2023-01-20T01:11:16.474Z,97377.97
2023-01-20T01:13:46.224Z,97377.97
2023-01-20T01:16:16.107Z,97377.97
2023-01-20T01:18:45.005Z,97635.72
2023-01-20T01:21:15.316Z,97635.72
2023-01-20T01:23:44.415Z,97893.50
2023-01-20T01:26:13.338Z,97893.50
2023-01-20T01:28:42.307Z,97635.72
2023-01-20T01:31:12.173Z,97893.50
2023-01-20T01:33:41.360Z,97893.50
2023-01-20T01:36:14.075Z,98151.31
2023-01-20T01:38:42.562Z,97893.50
2023-01-20T01:41:13.770Z,98409.13
2023-01-20T01:44:02.191Z,98666.94
2023-01-20T01:46:32.488Z,98666.94
2023-01-20T01:49:03.956Z,98409.13
2023-01-20T01:51:36.875Z,98151.31
2023-01-20T01:54:09.314Z,98409.13
2023-01-20T01:56:39.301Z,98409.13
2023-01-20T01:59:07.722Z,98409.13
2023-01-20T02:01:41.455Z,98409.13
2023-01-20T02:04:12.677Z,98409.13
2023-01-20T02:06:43.964Z,98409.13
2023-01-20T02:09:12.880Z,98409.13
2023-01-20T02:11:48.491Z,98666.94
2023-01-20T02:14:19.227Z,98409.13
2023-01-20T02:17:00.129Z,98151.31
2023-01-20T02:20:02.635Z,97893.50
2023-01-20T02:22:39.549Z,97893.50
2023-01-20T02:25:59.035Z,97635.72
2023-01-20T02:28:49.110Z,97635.72
2023-01-20T02:31:43.494Z,97893.50
2023-01-20T02:34:17.852Z,98409.13
2023-01-20T02:36:52.158Z,98409.13
2023-01-20T02:39:27.684Z,98666.94
2023-01-20T02:42:02.541Z,98666.94
2023-01-20T02:44:40.611Z,98924.81
2023-01-20T02:47:14.058Z,98924.81
2023-01-20T02:49:54.518Z,99182.69
2023-01-20T02:52:27.082Z,99440.56
2023-01-20T02:54:58.576Z,99182.69
2023-01-20T02:57:32.030Z,99182.69
2023-01-20T03:00:07.604Z,98924.81
2023-01-20T03:02:38.770Z,99182.69
2023-01-20T03:05:11.969Z,98924.81
2023-01-20T03:07:42.822Z,98924.81
2023-01-20T03:10:15.689Z,99182.69
2023-01-20T03:12:51.240Z,98924.81
2023-01-20T03:15:23.559Z,98924.81
2023-01-20T03:17:52.012Z,98666.94
2023-01-20T03:20:22.007Z,98924.81
2023-01-20T03:22:51.122Z,98924.81
2023-01-20T03:25:21.036Z,98924.81
2023-01-20T03:27:49.540Z,99182.69
2023-01-20T03:30:18.981Z,98924.81
2023-01-20T03:32:50.658Z,98666.94
2023-01-20T03:35:19.650Z,98409.13
2023-01-20T03:37:49.664Z,98924.81
2023-01-20T03:40:18.770Z,98409.13
2023-01-20T03:42:53.893Z,97893.50
2023-01-20T03:45:31.006Z,97635.72
2023-01-20T03:48:05.702Z,97893.50
2023-01-20T03:50:38.477Z,97635.72
2023-01-20T03:53:19.857Z,96862.50
2023-01-20T03:55:54.418Z,97120.22
2023-01-20T03:58:28.352Z,96347.13
2023-01-20T04:00:58.918Z,95831.81
2023-01-20T04:03:31.437Z,95831.81
2023-01-20T04:06:02.938Z,95059.00
2023-01-20T04:08:36.663Z,95574.19
2023-01-20T04:11:07.664Z,95316.59
2023-01-20T04:13:36.724Z,94801.44
2023-01-20T04:16:11.453Z,94286.38
2023-01-20T04:18:42.912Z,94286.38
2023-01-20T04:21:17.621Z,94286.38
2023-01-20T04:23:53.408Z,94543.91
2023-01-20T04:26:21.815Z,94801.44
2023-01-20T04:28:50.168Z,94286.38
2023-01-20T04:31:30.002Z,94543.91
2023-01-20T04:33:58.798Z,94801.44
2023-01-20T04:36:27.122Z,95316.59
2023-01-20T04:38:57.118Z,95316.59
2023-01-20T04:41:25.585Z,95316.59
2023-01-20T04:43:53.910Z,94801.44
2023-01-20T04:46:22.406Z,95316.59
2023-01-20T04:48:50.742Z,95059.00
2023-01-20T04:51:19.228Z,95316.59
2023-01-20T04:53:47.755Z,95831.81
2023-01-20T04:56:17.465Z,96347.13
2023-01-20T04:58:45.825Z,95831.81
2023-01-20T05:01:14.329Z,95831.81
2023-01-20T05:03:42.705Z,95831.81
2023-01-20T05:06:12.309Z,95316.59
2023-01-20T05:08:41.102Z,95831.81
2023-01-20T05:11:09.421Z,95574.19
2023-01-20T05:13:40.339Z,95316.59
2023-01-20T05:16:10.664Z,95059.00
2023-01-20T05:18:39.154Z,95316.59
2023-01-20T05:21:08.858Z,96089.47
2023-01-20T05:23:37.387Z,95316.59
2023-01-20T05:26:06.642Z,94801.44
2023-01-20T05:28:35.763Z,94801.44
2023-01-20T05:31:05.573Z,94028.84
2023-01-20T05:33:33.869Z,94801.44
2023-01-20T05:36:06.353Z,94543.91
2023-01-20T05:38:34.799Z,93513.91
2023-01-20T05:41:03.381Z,93256.44
2023-01-20T05:43:31.756Z,93771.38
2023-01-20T05:46:00.540Z,93771.38
2023-01-20T05:48:30.426Z,93771.38
2023-01-20T05:50:58.797Z,94028.84
2023-01-20T05:53:27.151Z,93771.38
2023-01-20T05:56:06.742Z,93513.91
2023-01-20T05:58:35.428Z,93771.38
2023-01-20T06:01:07.766Z,94028.84
2023-01-20T06:03:37.670Z,94028.84
2023-01-20T06:06:08.967Z,94286.38
2023-01-20T06:08:37.355Z,94028.84
2023-01-20T06:11:05.918Z,94028.84
2023-01-20T06:13:35.443Z,93256.44
2023-01-20T06:16:05.731Z,93256.44
2023-01-20T06:18:37.210Z,92999.00
2023-01-20T06:21:05.975Z,93256.44
2023-01-20T06:23:34.479Z,94028.84
2023-01-20T06:26:04.453Z,93256.44
2023-01-20T06:28:33.509Z,93771.38
2023-01-20T06:31:03.761Z,93256.44
2023-01-20T06:33:32.912Z,92999.00
2023-01-20T06:36:03.055Z,93513.91
2023-01-20T06:38:33.481Z,92999.00
2023-01-20T06:41:03.281Z,92484.19
2023-01-20T06:43:32.743Z,93513.91
2023-01-20T06:46:01.819Z,92999.00
2023-01-20T06:48:30.642Z,92999.00
2023-01-20T06:51:03.685Z,93256.44
2023-01-20T06:53:32.143Z,93513.91
2023-01-20T06:56:01.943Z,94028.84
2023-01-20T06:58:31.826Z,94286.38
2023-01-20T07:01:06.304Z,93513.91
2023-01-20T07:03:34.847Z,92999.00
2023-01-20T07:06:06.530Z,92741.59
2023-01-20T07:08:34.954Z,92484.19
2023-01-20T07:11:03.291Z,92484.19
2023-01-20T07:13:31.663Z,92999.00
2023-01-20T07:16:00.199Z,93256.44
2023-01-20T07:18:28.611Z,93771.38
2023-01-20T07:20:57.880Z,93256.44
2023-01-20T07:23:29.182Z,94028.84
2023-01-20T07:26:01.951Z,93513.91
2023-01-20T07:28:32.341Z,92999.00
2023-01-20T07:31:04.976Z,94028.84
2023-01-20T07:33:33.780Z,94028.84
2023-01-20T07:36:02.470Z,93513.91
2023-01-20T07:38:32.194Z,94286.38
2023-01-20T07:41:03.471Z,93513.91
2023-01-20T07:43:33.815Z,93513.91
2023-01-20T07:46:07.159Z,93513.91
2023-01-20T07:48:35.631Z,94028.84
2023-01-20T07:51:06.715Z,94543.91
2023-01-20T07:53:38.623Z,94286.38
2023-01-20T07:56:09.490Z,93771.38
2023-01-20T07:58:38.374Z,94028.84
2023-01-20T08:01:11.593Z,93513.91
2023-01-20T08:03:40.368Z,94543.91
2023-01-20T08:06:10.842Z,93771.38
2023-01-20T08:08:41.225Z,93513.91
2023-01-20T08:11:13.142Z,93256.44
2023-01-20T08:13:42.195Z,92999.00
2023-01-20T08:16:13.939Z,94028.84
2023-01-20T08:18:42.507Z,93771.38
2023-01-20T08:21:19.571Z,93513.91
2023-01-20T08:23:49.541Z,92999.00
2023-01-20T08:26:21.938Z,92999.00
2023-01-20T08:28:55.923Z,92999.00
2023-01-20T08:31:25.773Z,92226.81
2023-01-20T08:33:55.395Z,92484.19
2023-01-20T08:36:26.121Z,92226.81
2023-01-20T08:38:56.978Z,92484.19
2023-01-20T08:41:28.201Z,91197.50
2023-01-20T08:43:58.941Z,90682.97
2023-01-20T08:46:27.741Z,90682.97
2023-01-20T08:48:56.396Z,89911.31
2023-01-20T08:51:27.604Z,88111.41
2023-01-20T08:53:57.481Z,87597.34
2023-01-20T08:56:26.010Z,88111.41
2023-01-20T08:58:55.085Z,86055.56
2023-01-20T09:01:25.922Z,88882.69
2023-01-20T09:04:05.527Z,89139.81
2023-01-20T09:06:39.826Z,87854.38
2023-01-20T09:09:09.851Z,89654.13
2023-01-20T09:11:38.379Z,88111.41
2023-01-20T09:14:07.059Z,88625.56
2023-01-20T09:16:35.529Z,87854.38
2023-01-20T09:19:04.433Z,88882.69
2023-01-20T09:21:32.864Z,88111.41
2023-01-20T09:24:01.429Z,87854.38
2023-01-20T09:26:38.499Z,88111.41
2023-01-20T09:29:10.377Z,88368.50
2023-01-20T09:31:39.962Z,89911.31
2023-01-20T09:34:08.620Z,88368.50
2023-01-20T09:36:37.016Z,88368.50
2023-01-20T09:39:22.857Z,89654.13
2023-01-20T09:42:10.504Z,88111.41
2023-01-20T09:44:49.638Z,88625.56
2023-01-20T09:47:31.180Z,88625.56
2023-01-20T09:50:54.620Z,87854.38
2023-01-20T09:53:43.868Z,87854.38
2023-01-20T09:56:16.573Z,88625.56
2023-01-20T09:58:54.278Z,88882.69
2023-01-20T10:01:30.961Z,87854.38
2023-01-20T10:04:07.512Z,87597.34
2023-01-20T10:06:40.473Z,87854.38
2023-01-20T10:09:18.118Z,88111.41
2023-01-20T10:11:48.244Z,87340.31
2023-01-20T10:14:23.852Z,88368.50
2023-01-20T10:16:59.075Z,88111.41
2023-01-20T10:19:36.012Z,87854.38
2023-01-20T10:22:11.422Z,88111.41
2023-01-20T10:24:48.473Z,88111.41
2023-01-20T10:27:16.860Z,87854.38
2023-01-20T10:29:54.334Z,87597.34
2023-01-20T10:32:29.664Z,86826.34
2023-01-20T10:35:02.197Z,86312.47
2023-01-20T10:37:32.689Z,85798.66
2023-01-20T10:40:16.777Z,86312.47
2023-01-20T10:42:49.617Z,86569.41
2023-01-20T10:45:25.568Z,86569.41
2023-01-20T10:48:05.926Z,86826.34
2023-01-20T10:50:51.448Z,87340.31
2023-01-20T10:53:46.274Z,87597.34
2023-01-20T10:56:35.518Z,87854.38
2023-01-20T10:59:11.120Z,88625.56
2023-01-20T11:01:41.422Z,88625.56
2023-01-20T11:04:19.410Z,88882.69
2023-01-20T11:06:52.669Z,88882.69
2023-01-20T11:09:34.466Z,89654.13
2023-01-20T11:12:05.286Z,89911.31
2023-01-20T11:14:35.169Z,89654.13
2023-01-20T11:17:08.106Z,89911.31
2023-01-20T11:19:48.179Z,90425.72
2023-01-20T11:22:21.384Z,90682.97
2023-01-20T11:24:54.853Z,90682.97
2023-01-20T11:27:26.807Z,90682.97
2023-01-20T11:30:00.572Z,90940.22
2023-01-20T11:32:33.630Z,91197.50
2023-01-20T11:35:04.241Z,91712.13
2023-01-20T11:37:40.435Z,91969.47
2023-01-20T11:40:27.473Z,91712.13
2023-01-20T11:42:58.622Z,92226.81
2023-01-20T11:45:31.229Z,92226.81
2023-01-20T11:48:07.449Z,92484.19
2023-01-20T11:50:42.588Z,92999.00
2023-01-20T11:53:19.478Z,93513.91
2023-01-20T11:55:51.341Z,92741.59
2023-01-20T11:58:23.020Z,92741.59
2023-01-20T12:00:53.401Z,92999.00
2023-01-20T12:03:45.557Z,92999.00
2023-01-20T12:06:19.606Z,93513.91
2023-01-20T12:08:51.268Z,93513.91
2023-01-20T12:11:25.420Z,93256.44
2023-01-20T12:14:23.409Z,94028.84
2023-01-20T12:17:12.112Z,94286.38
2023-01-20T12:19:54.251Z,94801.44
2023-01-20T12:22:27.507Z,94028.84
2023-01-20T12:25:08.722Z,94028.84
2023-01-20T12:27:43.105Z,93771.38
2023-01-20T12:30:25.881Z,94028.84
2023-01-20T12:32:54.313Z,94286.38
2023-01-20T12:35:28.935Z,94543.91
2023-01-20T12:37:58.924Z,93771.38
2023-01-20T12:40:37.399Z,94028.84
2023-01-20T12:43:33.359Z,94801.44
2023-01-20T12:46:20.721Z,95316.59
2023-01-20T12:49:01.485Z,94801.44
2023-01-20T12:51:52.722Z,94286.38
2023-01-20T12:54:49.289Z,94286.38
2023-01-20T12:57:29.533Z,93771.38
2023-01-20T13:00:16.628Z,94286.38
2023-01-20T13:03:04.942Z,94028.84
2023-01-20T13:06:09.392Z,93771.38
2023-01-20T13:08:51.809Z,94543.91
2023-01-20T13:11:32.096Z,94543.91
2023-01-20T13:14:09.606Z,94801.44
2023-01-20T13:16:44.650Z,94286.38
2023-01-20T13:19:16.629Z,94286.38
2023-01-20T13:21:45.463Z,94286.38
2023-01-20T13:24:29.246Z,94543.91
2023-01-20T13:26:59.910Z,94543.91
2023-01-20T13:29:44.574Z,94543.91
2023-01-20T13:32:46.033Z,93771.38
2023-01-20T13:35:43.547Z,94028.84
2023-01-20T13:38:20.745Z,94286.38
2023-01-20T13:40:56.711Z,94801.44
2023-01-20T13:43:36.361Z,95059.00
2023-01-20T13:46:47.815Z,95316.59
2023-01-20T13:49:23.206Z,95574.19
2023-01-20T13:51:51.956Z,95574.19
2023-01-20T13:54:43.472Z,95059.00
2023-01-20T13:57:37.496Z,94801.44
2023-01-20T14:00:17.828Z,94801.44
2023-01-20T14:02:48.222Z,94801.44
2023-01-20T14:05:31.548Z,94286.38
2023-01-20T14:08:00.808Z,93771.38
2023-01-20T14:10:29.796Z,94543.91
2023-01-20T14:12:59.609Z,94801.44
2023-01-20T14:15:36.343Z,94286.38
2023-01-20T14:18:06.161Z,94801.44
2023-01-20T14:20:34.670Z,95316.59
2023-01-20T14:23:28.913Z,94543.91
2023-01-20T14:26:02.945Z,94286.38
2023-01-20T14:28:33.806Z,95316.59
2023-01-20T14:31:25.104Z,95316.59
2023-01-20T14:33:57.565Z,95059.00
2023-01-20T14:36:28.199Z,94801.44
2023-01-20T14:38:59.037Z,94286.38
2023-01-20T14:41:35.690Z,94028.84
2023-01-20T14:44:18.091Z,94543.91
2023-01-20T14:46:47.733Z,94543.91
2023-01-20T14:49:18.768Z,95059.00
2023-01-20T14:51:49.206Z,94543.91
2023-01-20T14:54:38.725Z,94801.44
2023-01-20T14:57:29.602Z,94286.38
2023-01-20T15:00:14.905Z,94543.91
2023-01-20T15:02:46.008Z,94028.84
2023-01-20T15:05:22.217Z,94286.38
2023-01-20T15:07:50.892Z,94543.91
2023-01-20T15:10:19.871Z,94286.38
2023-01-20T15:12:55.948Z,94028.84
2023-01-20T15:15:31.605Z,93513.91
2023-01-20T15:18:18.226Z,93513.91
2023-01-20T15:20:49.570Z,92741.59
2023-01-20T15:23:22.313Z,92741.59
2023-01-20T15:25:52.875Z,92226.81
2023-01-20T15:28:27.779Z,92999.00
2023-01-20T15:30:59.776Z,92226.81
2023-01-20T15:33:28.387Z,92484.19
2023-01-20T15:35:59.249Z,92226.81
2023-01-20T15:38:32.543Z,92226.81
2023-01-20T15:41:01.015Z,92226.81
2023-01-20T15:43:29.740Z,91969.47
2023-01-20T15:45:59.695Z,91712.13
2023-01-20T15:48:28.249Z,91969.47
2023-01-20T15:50:56.661Z,91197.50
2023-01-20T15:53:25.254Z,90682.97
2023-01-20T15:55:53.857Z,90940.22
2023-01-20T15:58:28.233Z,91454.81
2023-01-20T16:00:58.797Z,91454.81
2023-01-20T16:03:29.268Z,91197.50
2023-01-20T16:05:58.119Z,91454.81
2023-01-20T16:08:37.629Z,91197.50
2023-01-20T16:11:06.439Z,90940.22
2023-01-20T16:13:34.931Z,91454.81
2023-01-20T16:16:03.839Z,91197.50
2023-01-20T16:18:33.617Z,91197.50
2023-01-20T16:21:02.752Z,91197.50
2023-01-20T16:23:31.319Z,90940.22
2023-01-20T16:25:59.879Z,90425.72
2023-01-20T16:28:28.311Z,90682.97
2023-01-20T16:30:57.826Z,90682.97
2023-01-20T16:33:28.243Z,90425.72
2023-01-20T16:35:58.244Z,90168.50
2023-01-20T16:38:26.897Z,89396.97
2023-01-20T16:41:03.300Z,89654.13
2023-01-20T16:43:31.739Z,89911.31
2023-01-20T16:46:00.323Z,89911.31
2023-01-20T16:48:28.637Z,90425.72
2023-01-20T16:51:06.569Z,89911.31
2023-01-20T16:53:35.252Z,90425.72
2023-01-20T16:56:03.578Z,90682.97
2023-01-20T16:58:32.043Z,90682.97
2023-01-20T17:01:00.531Z,90682.97
2023-01-20T17:03:29.025Z,90682.97
2023-01-20T17:05:59.978Z,91197.50
2023-01-20T17:08:28.356Z,90425.72
2023-01-20T17:10:56.798Z,90682.97
2023-01-20T17:13:25.386Z,89911.31
2023-01-20T17:15:53.763Z,89911.31
2023-01-20T17:18:22.203Z,90425.72
2023-01-20T17:20:50.791Z,90168.50
2023-01-20T17:23:20.698Z,89911.31
2023-01-20T17:25:49.461Z,89911.31
2023-01-20T17:28:17.933Z,89911.31
2023-01-20T17:30:46.585Z,90168.50
2023-01-20T17:33:14.983Z,90682.97
2023-01-20T17:35:44.148Z,89654.13
2023-01-20T17:38:13.808Z,89139.81
2023-01-20T17:40:43.686Z,88625.56
2023-01-20T17:43:12.220Z,88882.69
2023-01-20T17:45:40.702Z,88111.41
2023-01-20T17:48:09.142Z,88111.41
2023-01-20T17:50:38.972Z,87340.31
2023-01-20T17:53:07.422Z,86312.47
2023-01-20T17:55:35.878Z,85541.78
2023-01-20T17:58:05.731Z,85284.91
2023-01-20T18:00:34.048Z,84514.44
2023-01-20T18:03:02.437Z,84257.66
2023-01-20T18:05:30.954Z,83230.72
2023-01-20T18:07:59.459Z,82460.72
2023-01-20T18:10:27.920Z,81434.31
2023-01-20T18:12:56.300Z,80408.22
2023-01-20T18:15:26.065Z,79382.44
2023-01-20T18:17:54.573Z,78100.63
2023-01-20T18:20:23.670Z,76563.09
2023-01-20T18:22:52.687Z,75794.56
2023-01-20T18:25:21.219Z,74514.09
2023-01-20T18:27:49.916Z,72978.16
2023-01-20T18:30:18.997Z,72210.47
2023-01-20T18:32:48.963Z,70675.56
2023-01-20T18:35:17.424Z,69189.28
2023-01-20T18:37:45.930Z,68364.50
2023-01-20T18:40:15.078Z,67300.41
2023-01-20T18:42:45.145Z,66494.06
2023-01-20T18:45:13.774Z,65402.59
2023-01-20T18:47:42.659Z,64854.00
2023-01-20T18:50:13.028Z,64177.84
2023-01-20T18:52:41.523Z,63846.81
2023-01-20T18:55:10.804Z,63260.59
2023-01-20T18:57:39.197Z,63162.91
2023-01-20T19:00:09.110Z,62716.34
2023-01-20T19:02:37.680Z,62285.78
2023-01-20T19:05:06.794Z,62307.69
2023-01-20T19:07:36.589Z,62295.75
2023-01-20T19:10:05.513Z,62337.59
2023-01-20T19:12:33.948Z,62225.97
2023-01-20T19:15:02.676Z,61801.47
2023-01-20T19:17:33.093Z,61392.94
2023-01-20T19:20:01.717Z,61233.53
2023-01-20T19:22:31.028Z,61309.25
2023-01-20T19:25:00.747Z,61572.28
2023-01-20T19:27:29.167Z,61239.50
2023-01-20T19:29:57.510Z,60854.94
2023-01-20T19:32:25.863Z,60916.72
2023-01-20T19:34:54.302Z,60530.22
2023-01-20T19:37:22.786Z,60623.84
2023-01-20T19:39:51.422Z,60372.81
2023-01-20T19:42:21.154Z,60293.16
2023-01-20T19:44:49.502Z,60426.63
2023-01-20T19:47:17.843Z,60344.94
2023-01-20T19:49:46.223Z,60446.53
2023-01-20T19:52:14.812Z,60466.47
2023-01-20T19:54:43.224Z,60631.81
2023-01-20T19:57:11.917Z,60699.53
2023-01-20T19:59:41.841Z,60679.63
2023-01-20T20:02:10.857Z,60494.34
2023-01-20T20:04:39.345Z,60325.03
2023-01-20T20:07:07.735Z,60255.28
2023-01-20T20:09:36.238Z,59932.59
2023-01-20T20:12:06.464Z,59880.81
2023-01-20T20:14:35.421Z,59753.34
2023-01-20T20:17:05.126Z,59699.56
2023-01-20T20:19:33.713Z,59534.25
2023-01-20T20:22:02.113Z,59558.16
2023-01-20T20:24:30.538Z,59374.94
2023-01-20T20:26:58.853Z,59299.25
2023-01-20T20:29:28.030Z,59544.22
2023-01-20T20:31:56.399Z,59446.63
2023-01-20T20:34:26.268Z,59440.66
2023-01-20T20:36:54.673Z,59442.66
2023-01-20T20:39:23.043Z,59388.88
2023-01-20T20:41:51.321Z,59412.78
2023-01-20T20:44:19.843Z,59424.72
2023-01-20T20:46:48.864Z,59472.53
2023-01-20T20:49:17.621Z,59436.69
2023-01-20T20:51:47.726Z,59133.97
2023-01-20T20:54:17.203Z,59016.47
2023-01-20T20:56:46.173Z,59102.09
2023-01-20T20:59:14.616Z,58944.81
2023-01-20T21:01:43.103Z,58851.22
2023-01-20T21:04:11.849Z,58875.09
2023-01-20T21:06:40.381Z,58974.66
2023-01-20T21:09:10.488Z,59157.88
2023-01-20T21:11:39.412Z,59149.91
2023-01-20T21:14:08.876Z,59229.56
2023-01-20T21:16:37.973Z,59400.81
2023-01-20T21:19:06.478Z,59584.06
2023-01-20T21:21:35.090Z,59759.31
2023-01-20T21:24:03.942Z,59781.22
2023-01-20T21:26:34.137Z,59731.44
2023-01-20T21:29:04.018Z,59757.31
2023-01-20T21:31:32.696Z,59659.72
2023-01-20T21:34:01.828Z,59472.53
2023-01-20T21:36:32.467Z,59368.97
2023-01-20T21:39:01.277Z,59380.91
2023-01-20T21:41:29.736Z,59516.34
2023-01-20T21:44:16.936Z,59516.34
2023-01-20T21:46:45.697Z,59663.72
2023-01-20T21:49:32.096Z,59669.69
2023-01-20T21:52:18.207Z,59179.78
2023-01-20T21:54:46.790Z,59289.31
2023-01-20T21:57:15.412Z,59325.16
2023-01-20T21:59:46.045Z,59392.88
2023-01-20T22:02:15.532Z,59494.44
2023-01-20T22:04:46.242Z,59572.09
2023-01-20T22:07:15.680Z,59596.00
2023-01-20T22:09:44.299Z,59464.56
2023-01-20T22:12:13.557Z,59277.34
2023-01-20T22:14:43.031Z,58855.19
2023-01-20T22:17:13.725Z,58946.78
2023-01-20T22:19:43.909Z,58934.84
2023-01-20T22:22:15.001Z,59106.09
2023-01-20T22:24:43.749Z,59331.13
2023-01-20T22:27:12.125Z,59661.72
2023-01-20T22:29:40.561Z,60038.19
2023-01-20T22:32:09.348Z,59755.34
2023-01-20T22:34:39.065Z,60135.78
2023-01-20T22:37:07.445Z,59962.47
2023-01-20T22:39:35.840Z,59829.03
2023-01-20T22:42:04.450Z,59506.38
2023-01-20T22:44:32.865Z,59647.78
2023-01-20T22:47:01.728Z,59821.06
2023-01-20T22:49:30.133Z,60327.00
2023-01-20T22:51:59.996Z,60743.38
2023-01-20T22:54:28.286Z,60785.22
2023-01-20T22:56:56.685Z,61086.06
2023-01-20T22:59:25.187Z,60673.66
2023-01-20T23:01:53.744Z,60723.47
2023-01-20T23:04:22.103Z,60492.34
2023-01-20T23:06:50.515Z,60548.13
2023-01-20T23:09:20.261Z,60273.22
2023-01-20T23:11:49.996Z,60115.84
2023-01-20T23:14:38.429Z,60012.28
2023-01-20T23:17:06.718Z,59647.78
2023-01-20T23:19:35.043Z,59560.16
2023-01-20T23:22:03.438Z,59299.25
2023-01-20T23:24:33.275Z,59277.34
2023-01-20T23:27:01.606Z,59253.47
2023-01-20T23:29:30.160Z,59404.81
2023-01-20T23:31:58.739Z,59572.09
2023-01-20T23:34:27.138Z,59711.53
2023-01-20T23:36:55.407Z,59639.81
2023-01-20T23:39:23.728Z,59478.50
2023-01-20T23:41:54.968Z,59329.13
2023-01-20T23:44:23.294Z,59470.53
2023-01-20T23:46:51.587Z,59544.22
2023-01-20T23:49:22.452Z,59237.53
2023-01-20T23:51:51.003Z,59639.81
2023-01-20T23:54:19.399Z,59874.84
2023-01-20T23:56:47.766Z,59512.34
2023-01-20T23:59:17.484Z,59496.41
